createdAt,value
2018-12-31T00:02:40.829Z,87.79
2018-12-31T00:07:42.359Z,87.33
2018-12-31T00:12:43.898Z,87.58
2018-12-31T00:17:45.469Z,87.66
2018-12-31T00:22:47.013Z,87.64
2018-12-31T00:27:48.540Z,87.39
2018-12-31T00:32:50.464Z,86.82
2018-12-31T00:37:51.989Z,86.53
2018-12-31T00:42:58.979Z,86.29
2018-12-31T00:47:57.406Z,86.08
2018-12-31T00:52:58.964Z,86.05
2018-12-31T00:58:00.539Z,86.04
2018-12-31T01:03:02.115Z,85.97
2018-12-31T01:08:03.923Z,85.95
2018-12-31T01:13:05.500Z,85.79
2018-12-31T01:18:07.018Z,85.71
2018-12-31T01:23:08.561Z,85.74
2018-12-31T01:28:10.551Z,86.08
2018-12-31T01:33:12.049Z,86.37
2018-12-31T01:38:13.597Z,86.54
2018-12-31T01:43:15.875Z,86.48
2018-12-31T01:48:17.381Z,86.48
2018-12-31T01:53:18.903Z,86.76
2018-12-31T01:58:20.457Z,87.06
2018-12-31T02:03:22.349Z,86.92
2018-12-31T02:08:23.856Z,86.80
2018-12-31T02:13:25.386Z,86.88
2018-12-31T02:18:26.909Z,87.49
2018-12-31T02:23:28.456Z,87.17
2018-12-31T02:28:30.056Z,86.87
2018-12-31T02:33:31.980Z,86.61
2018-12-31T02:38:33.481Z,86.39
2018-12-31T02:43:35.018Z,86.45
2018-12-31T02:48:36.903Z,86.59
2018-12-31T02:53:38.428Z,86.44
2018-12-31T02:58:39.956Z,86.69
2018-12-31T03:03:41.501Z,86.95
2018-12-31T03:08:43.010Z,87.33
2018-12-31T03:13:44.541Z,87.37
2018-12-31T03:18:46.085Z,86.83
2018-12-31T03:23:47.590Z,87.40
2018-12-31T03:28:49.431Z,87.01
2018-12-31T03:33:51.247Z,87.16
2018-12-31T03:38:52.765Z,86.97
2018-12-31T03:43:54.656Z,86.98
2018-12-31T03:48:56.195Z,87.11
2018-12-31T03:53:58.104Z,87.16
2018-12-31T03:58:59.610Z,87.15
2018-12-31T04:04:01.153Z,86.92
2018-12-31T04:09:04.303Z,87.27
2018-12-31T04:14:06.544Z,87.24
2018-12-31T04:19:08.066Z,87.40
2018-12-31T04:24:10.512Z,87.34
2018-12-31T04:29:12.008Z,87.00
2018-12-31T04:34:13.639Z,87.26
2018-12-31T04:39:15.171Z,87.13
2018-12-31T04:44:16.720Z,86.93
2018-12-31T04:49:18.243Z,87.13
2018-12-31T04:54:19.779Z,87.14
2018-12-31T04:59:21.414Z,87.06
2018-12-31T05:04:23.087Z,87.09
2018-12-31T05:09:24.798Z,87.14
2018-12-31T05:14:26.468Z,87.11
2018-12-31T05:19:28.021Z,87.00
2018-12-31T05:24:29.996Z,86.80
2018-12-31T05:29:31.697Z,86.98
2018-12-31T05:34:33.284Z,87.05
2018-12-31T05:39:35.378Z,86.92
2018-12-31T05:44:36.911Z,86.85
2018-12-31T05:49:38.541Z,86.83
2018-12-31T05:54:40.107Z,86.67
2018-12-31T05:59:41.619Z,86.63
2018-12-31T06:04:43.446Z,86.70
2018-12-31T06:09:44.999Z,86.91
2018-12-31T06:14:46.578Z,86.87
2018-12-31T06:19:48.202Z,87.01
2018-12-31T06:24:49.980Z,86.75
2018-12-31T06:29:51.642Z,86.79
2018-12-31T06:34:53.267Z,86.91
2018-12-31T06:39:55.299Z,86.78
2018-12-31T06:44:56.877Z,86.70
2018-12-31T06:49:58.789Z,86.56
2018-12-31T06:55:00.778Z,86.51
2018-12-31T07:00:02.716Z,86.49
2018-12-31T07:05:06.403Z,86.31
2018-12-31T07:10:08.007Z,86.52
2018-12-31T07:15:10.423Z,86.38
2018-12-31T07:20:11.999Z,86.40
2018-12-31T07:25:13.952Z,86.57
2018-12-31T07:30:15.550Z,86.59
2018-12-31T07:35:17.804Z,86.52
2018-12-31T07:40:19.395Z,86.65
2018-12-31T07:45:20.964Z,86.75
2018-12-31T07:50:22.558Z,86.69
2018-12-31T07:55:24.415Z,86.52
2018-12-31T08:00:25.970Z,86.31
2018-12-31T08:05:27.487Z,86.58
2018-12-31T08:10:29.057Z,86.58
2018-12-31T08:15:30.562Z,86.63
2018-12-31T08:20:32.170Z,86.52
2018-12-31T08:25:34.156Z,86.36
2018-12-31T08:30:35.732Z,86.43
2018-12-31T08:35:37.362Z,86.36
2018-12-31T08:40:38.944Z,86.31
2018-12-31T08:45:40.477Z,86.16
2018-12-31T08:50:42.019Z,85.97
2018-12-31T08:55:43.577Z,85.81
2018-12-31T09:00:45.146Z,85.72
2018-12-31T09:05:46.686Z,85.61
2018-12-31T09:10:48.243Z,85.49
2018-12-31T09:15:49.770Z,85.41
2018-12-31T09:20:52.024Z,85.19
2018-12-31T09:25:53.758Z,85.28
2018-12-31T09:30:55.356Z,85.30
2018-12-31T09:35:56.989Z,85.29
2018-12-31T09:40:58.928Z,85.40
2018-12-31T09:46:00.491Z,85.32
2018-12-31T09:51:02.058Z,85.15
2018-12-31T09:56:03.612Z,84.66
2018-12-31T10:01:05.157Z,84.57
2018-12-31T10:06:06.697Z,84.46
2018-12-31T10:11:08.257Z,84.31
2018-12-31T10:16:09.820Z,84.42
2018-12-31T10:21:11.388Z,84.49
2018-12-31T10:26:12.940Z,84.03
2018-12-31T10:31:14.552Z,83.74
2018-12-31T10:36:16.695Z,83.36
2018-12-31T10:41:18.423Z,82.65
2018-12-31T10:46:20.418Z,82.33
2018-12-31T10:51:22.024Z,82.18
2018-12-31T10:56:24.046Z,81.75
2018-12-31T11:01:25.662Z,81.21
2018-12-31T11:06:27.209Z,81.59
2018-12-31T11:11:28.780Z,81.34
2018-12-31T11:16:30.397Z,81.63
2018-12-31T11:21:31.990Z,81.67
2018-12-31T11:26:33.547Z,81.56
2018-12-31T11:31:35.132Z,81.50
2018-12-31T11:36:36.679Z,81.34
2018-12-31T11:41:39.728Z,81.56
2018-12-31T11:46:41.545Z,81.03
2018-12-31T11:51:43.171Z,81.00
2018-12-31T11:56:45.171Z,80.94
2018-12-31T12:01:46.717Z,79.27
2018-12-31T12:06:48.227Z,79.98
2018-12-31T12:11:49.821Z,79.91
2018-12-31T12:16:51.368Z,79.69
2018-12-31T12:21:52.901Z,79.33
2018-12-31T12:26:54.545Z,79.34
2018-12-31T12:31:56.080Z,78.84
2018-12-31T12:36:57.596Z,78.37
2018-12-31T12:42:00.634Z,79.08
2018-12-31T12:47:02.159Z,78.35
2018-12-31T12:52:03.740Z,78.64
2018-12-31T12:57:05.349Z,76.73
2018-12-31T13:02:06.917Z,76.51
2018-12-31T13:07:08.611Z,77.26
2018-12-31T13:12:10.288Z,77.06
2018-12-31T13:17:12.294Z,77.03
2018-12-31T13:22:13.952Z,77.87
2018-12-31T13:27:15.653Z,77.90
2018-12-31T13:32:17.277Z,77.13
2018-12-31T13:37:18.799Z,76.93
2018-12-31T13:42:20.586Z,77.12
2018-12-31T13:47:22.460Z,77.42
2018-12-31T13:52:24.385Z,78.05
2018-12-31T13:57:25.931Z,78.62
2018-12-31T14:02:27.476Z,78.74
2018-12-31T14:07:29.143Z,79.05
2018-12-31T14:12:30.783Z,79.31
2018-12-31T14:17:32.355Z,79.49
2018-12-31T14:22:35.176Z,79.12
2018-12-31T14:27:36.702Z,78.81
2018-12-31T14:32:38.347Z,79.28
2018-12-31T14:37:40.008Z,78.95
2018-12-31T14:42:42.024Z,79.18
2018-12-31T14:47:43.688Z,78.66
2018-12-31T14:52:45.250Z,78.81
2018-12-31T14:57:47.974Z,78.92
2018-12-31T15:02:49.504Z,78.97
2018-12-31T15:07:52.155Z,78.96
2018-12-31T15:12:56.285Z,78.74
2018-12-31T15:17:59.925Z,77.96
2018-12-31T15:23:05.912Z,78.75
2018-12-31T15:28:07.490Z,78.69
2018-12-31T15:33:10.893Z,78.58
2018-12-31T15:38:13.638Z,78.45
2018-12-31T15:43:15.232Z,79.11
2018-12-31T15:48:16.791Z,79.14
2018-12-31T15:53:18.352Z,79.41
2018-12-31T15:58:20.248Z,79.42
2018-12-31T16:03:21.802Z,79.62
2018-12-31T16:08:23.906Z,79.76
2018-12-31T16:13:25.460Z,79.87
2018-12-31T16:18:27.131Z,79.85
2018-12-31T16:23:29.106Z,79.90
2018-12-31T16:28:31.114Z,80.07
2018-12-31T16:33:32.830Z,80.20
2018-12-31T16:38:34.337Z,80.10
2018-12-31T16:43:36.049Z,80.22
2018-12-31T16:48:38.174Z,80.10
2018-12-31T16:53:40.113Z,80.04
2018-12-31T16:58:41.662Z,79.95
2018-12-31T17:03:43.663Z,80.04
2018-12-31T17:08:45.256Z,80.27
2018-12-31T17:13:46.842Z,80.42
2018-12-31T17:18:48.682Z,80.37
2018-12-31T17:23:50.356Z,80.48
2018-12-31T17:28:51.936Z,80.74
2018-12-31T17:33:53.870Z,80.89
2018-12-31T17:38:55.965Z,81.09
2018-12-31T17:43:58.047Z,81.12
2018-12-31T17:49:00.104Z,81.17
2018-12-31T17:54:02.112Z,81.35
2018-12-31T17:59:04.055Z,81.33
2018-12-31T18:04:05.729Z,81.41
2018-12-31T18:09:07.705Z,81.55
2018-12-31T18:14:09.226Z,81.22
2018-12-31T18:19:10.841Z,81.59
2018-12-31T18:24:12.601Z,81.49
2018-12-31T18:29:14.142Z,81.80
2018-12-31T18:34:15.718Z,81.99
2018-12-31T18:39:18.439Z,82.15
2018-12-31T18:44:20.019Z,82.21
2018-12-31T18:49:21.587Z,82.26
2018-12-31T18:54:23.586Z,82.38
2018-12-31T18:59:25.603Z,82.60
2018-12-31T19:04:27.783Z,82.83
2018-12-31T19:09:29.910Z,83.05
2018-12-31T19:14:31.447Z,83.36
2018-12-31T19:19:33.021Z,83.57
2018-12-31T19:24:34.559Z,83.90
2018-12-31T19:29:36.157Z,83.91
2018-12-31T19:34:38.072Z,84.10
2018-12-31T19:39:39.657Z,84.21
2018-12-31T19:44:41.255Z,84.31
2018-12-31T19:49:42.889Z,84.40
2018-12-31T19:54:44.819Z,84.43
2018-12-31T19:59:46.757Z,84.52
2018-12-31T20:04:48.325Z,84.66
2018-12-31T20:09:49.887Z,84.73
2018-12-31T20:14:51.485Z,84.76
2018-12-31T20:19:53.411Z,84.73
2018-12-31T20:24:54.942Z,84.74
2018-12-31T20:29:56.482Z,84.75
2018-12-31T20:34:59.663Z,84.77
2018-12-31T20:40:01.385Z,84.77
2018-12-31T20:45:02.933Z,84.80
2018-12-31T20:50:04.811Z,84.85
2018-12-31T20:55:06.559Z,85.01
2018-12-31T21:00:08.177Z,85.00
2018-12-31T21:05:11.507Z,84.97
2018-12-31T21:10:13.594Z,84.92
2018-12-31T21:15:16.342Z,84.98
2018-12-31T21:20:18.343Z,85.03
2018-12-31T21:25:20.247Z,85.08
2018-12-31T21:30:21.777Z,85.40
2018-12-31T21:35:23.838Z,85.15
2018-12-31T21:40:25.378Z,85.20
2018-12-31T21:45:27.053Z,85.27
2018-12-31T21:50:29.369Z,85.36
2018-12-31T21:55:30.928Z,85.18
2018-12-31T22:00:32.900Z,85.33
2018-12-31T22:05:34.534Z,85.46
2018-12-31T22:10:36.100Z,85.33
2018-12-31T22:15:37.813Z,85.39
2018-12-31T22:20:39.371Z,85.45
2018-12-31T22:25:40.989Z,85.47
2018-12-31T22:30:42.521Z,85.50
2018-12-31T22:35:44.291Z,85.44
2018-12-31T22:40:46.218Z,85.59
2018-12-31T22:45:48.140Z,85.65
2018-12-31T22:50:49.668Z,85.60
2018-12-31T22:55:51.259Z,85.58
2018-12-31T23:00:52.879Z,85.50
2018-12-31T23:05:55.262Z,85.51
2018-12-31T23:10:56.889Z,85.50
2018-12-31T23:15:58.458Z,85.51
2018-12-31T23:21:00.396Z,85.42
2018-12-31T23:26:02.062Z,85.45
2018-12-31T23:31:04.036Z,85.42
2018-12-31T23:36:05.626Z,85.31
2018-12-31T23:41:07.262Z,85.36
2018-12-31T23:46:08.780Z,85.27
2018-12-31T23:51:10.424Z,85.39
2018-12-31T23:56:12.402Z,85.34
